Time;durP1;ratioP1;P1;durP2;ratioP2;P2;SDS_P1;SDS_P2;PMS_P1;PMS_P2;Temp;Humidity;BMP_temperature;BMP_pressure;BME280_temperature;BME280_humidity;BME280_pressure;Samples;Min_cycle;Max_cycle;Signal;HPM_P1;HPM_P2
2022/01/28 00:01:21;;;;;;;6.47;5.40;;;;;;;;;;5112310;28;20194;-81
2022/01/28 00:03:49;;;;;;;10.37;6.97;;;;;;;;;;5112533;28;20175;-81
2022/01/28 00:06:17;;;;;;;13.63;7.93;;;;;;;;;;5112296;28;20288;-81
2022/01/28 00:08:44;;;;;;;8.13;6.00;;;;;;;;;;5111636;28;20719;-81
2022/01/28 00:11:12;;;;;;;11.73;7.60;;;;;;;;;;5112131;28;20210;-81
2022/01/28 00:13:41;;;;;;;9.50;5.57;;;;;;;;;;5112387;28;20232;-81
2022/01/28 00:16:42;;;;;;;7.03;6.30;;;;;;;;;;5112144;28;20290;-81
2022/01/28 00:38:29;;;;;;;6.77;5.20;;;;;;;;;;4991920;28;20219;-77
2022/01/28 00:40:56;;;;;;;15.77;9.03;;;;;;;;;;4991032;28;20736;-77
2022/01/28 00:43:24;;;;;;;29.73;18.50;;;;;;;;;;4990348;28;20672;-77
2022/01/28 00:45:51;;;;;;;21.60;11.93;;;;;;;;;;4993663;28;20203;-77
2022/01/28 00:48:19;;;;;;;9.60;7.37;;;;;;;;;;4995760;28;20196;-76
2022/01/28 00:50:47;;;;;;;11.17;6.87;;;;;;;;;;4995901;28;20253;-77
2022/01/28 00:53:14;;;;;;;11.10;7.37;;;;;;;;;;4995611;28;20699;-77
2022/01/28 00:55:41;;;;;;;10.67;7.90;;;;;;;;;;4995561;28;20200;-77
2022/01/28 00:58:08;;;;;;;10.20;7.63;;;;;;;;;;4995872;28;20192;-77
2022/01/28 01:00:35;;;;;;;11.13;7.90;;;;;;;;;;4995510;28;20200;-77
2022/01/28 01:03:03;;;;;;;9.13;6.80;;;;;;;;;;4995396;28;20660;-76
2022/01/28 01:05:33;;;;;;;9.03;5.73;;;;;;;;;;4995474;28;20647;-76
2022/01/28 01:08:01;;;;;;;20.60;13.83;;;;;;;;;;4995678;28;20192;-77
2022/01/28 01:10:28;;;;;;;40.33;22.70;;;;;;;;;;4995262;28;20695;-76
2022/01/28 01:12:55;;;;;;;69.70;37.80;;;;;;;;;;4995244;28;20200;-77
2022/01/28 01:15:27;;;;;;;31.17;17.93;;;;;;;;;;4995181;28;20694;-76
2022/01/28 01:18:00;;;;;;;15.13;9.40;;;;;;;;;;4995545;28;20258;-76
2022/01/28 01:23:23;;;;;;;30.77;18.40;;;;;;;;;;4991451;28;20278;-77
2022/01/28 01:25:54;;;;;;;23.70;18.73;;;;;;;;;;4995016;28;20644;-76
2022/01/28 01:28:27;;;;;;;34.73;23.93;;;;;;;;;;4995355;28;20184;-77
2022/01/28 01:30:56;;;;;;;11.23;8.53;;;;;;;;;;4994843;28;20267;-76
2022/01/28 01:33:23;;;;;;;6.17;4.63;;;;;;;;;;4994905;28;20202;-77
2022/01/28 01:35:51;;;;;;;9.03;7.23;;;;;;;;;;4994696;28;20196;-76
2022/01/28 01:38:24;;;;;;;7.87;6.50;;;;;;;;;;4994783;28;20280;-76
2022/01/28 01:40:54;;;;;;;8.43;6.20;;;;;;;;;;4995569;28;20194;-77
2022/01/28 01:43:34;;;;;;;7.70;5.30;;;;;;;;;;4995284;28;20189;-76
2022/01/28 01:46:13;;;;;;;10.67;6.87;;;;;;;;;;4995004;28;20370;-77
2022/01/28 01:54:10;;;;;;;10.70;7.20;;;;;;;;;;4994640;28;20235;-77
2022/01/28 01:56:39;;;;;;;4.93;4.30;;;;;;;;;;4994176;28;20751;-77
2022/01/28 01:59:08;;;;;;;4.40;4.00;;;;;;;;;;4995261;28;20203;-77
2022/01/28 02:01:35;;;;;;;5.47;4.40;;;;;;;;;;4994615;28;20232;-76
2022/01/28 02:04:03;;;;;;;4.10;3.70;;;;;;;;;;4994301;28;20208;-77
2022/01/28 02:06:31;;;;;;;4.97;3.87;;;;;;;;;;4994469;28;20250;-77
2022/01/28 02:08:59;;;;;;;3.97;3.57;;;;;;;;;;4994423;28;20196;-77
2022/01/28 02:11:28;;;;;;;3.97;3.57;;;;;;;;;;4994061;28;20196;-77
2022/01/28 02:13:55;;;;;;;3.90;3.37;;;;;;;;;;4994392;28;20204;-77
2022/01/28 02:16:23;;;;;;;4.27;3.80;;;;;;;;;;4994052;28;20215;-77
2022/01/28 02:18:50;;;;;;;4.27;3.20;;;;;;;;;;4994080;28;20204;-77
2022/01/28 02:21:19;;;;;;;5.37;4.47;;;;;;;;;;4993942;28;20675;-76
2022/01/28 02:23:51;;;;;;;4.60;3.97;;;;;;;;;;4993945;28;20204;-77
2022/01/28 02:26:18;;;;;;;4.70;4.03;;;;;;;;;;4993900;28;20206;-76
2022/01/28 02:28:49;;;;;;;4.43;3.83;;;;;;;;;;4993875;28;20679;-76
2022/01/28 02:31:21;;;;;;;4.40;3.90;;;;;;;;;;4993787;28;20208;-77
2022/01/28 02:33:49;;;;;;;14.53;8.33;;;;;;;;;;4994165;28;20189;-77
2022/01/28 02:36:18;;;;;;;13.83;8.97;;;;;;;;;;4993577;28;20220;-77
2022/01/28 02:38:45;;;;;;;10.93;8.03;;;;;;;;;;4993945;28;20207;-77
2022/01/28 02:41:12;;;;;;;7.87;5.40;;;;;;;;;;4993588;28;20294;-77
2022/01/28 02:43:44;;;;;;;8.13;5.97;;;;;;;;;;4993575;28;20214;-77
2022/01/28 02:46:14;;;;;;;6.90;5.07;;;;;;;;;;4993539;28;20192;-77
2022/01/28 02:48:51;;;;;;;7.30;6.03;;;;;;;;;;4993736;28;20254;-77
2022/01/28 02:51:22;;;;;;;6.93;5.17;;;;;;;;;;4993413;28;20215;-77
2022/01/28 02:53:53;;;;;;;5.73;4.30;;;;;;;;;;4993664;28;20211;-77
2022/01/28 02:56:23;;;;;;;6.60;3.73;;;;;;;;;;4993585;28;20199;-77
2022/01/28 02:58:50;;;;;;;5.47;4.23;;;;;;;;;;4993631;28;20271;-77
2022/01/28 03:01:19;;;;;;;4.37;3.77;;;;;;;;;;4993519;28;20219;-76
2022/01/28 03:03:49;;;;;;;5.13;4.37;;;;;;;;;;4993505;28;20270;-77
2022/01/28 03:06:17;;;;;;;4.40;4.00;;;;;;;;;;4993154;28;20231;-77
2022/01/28 03:08:52;;;;;;;4.47;3.63;;;;;;;;;;4992852;28;20196;-77
2022/01/28 03:14:16;;;;;;;3.93;3.47;;;;;;;;;;4993794;28;20183;-77
2022/01/28 03:17:03;;;;;;;4.07;3.53;;;;;;;;;;4992172;28;20188;-76
2022/01/28 03:19:43;;;;;;;9.00;6.03;;;;;;;;;;4973505;28;20716;-77
2022/01/28 03:22:10;;;;;;;6.67;5.50;;;;;;;;;;4973457;28;20680;-77
2022/01/28 03:24:40;;;;;;;6.80;5.03;;;;;;;;;;4973357;28;20201;-77
2022/01/28 03:27:14;;;;;;;6.53;5.47;;;;;;;;;;4973199;28;20193;-77
2022/01/28 03:29:41;;;;;;;5.50;4.60;;;;;;;;;;4973264;28;20628;-76
2022/01/28 03:32:09;;;;;;;8.23;5.83;;;;;;;;;;4973295;28;20303;-77
2022/01/28 03:34:36;;;;;;;9.90;6.47;;;;;;;;;;4973283;28;20196;-77
2022/01/28 03:37:05;;;;;;;11.30;9.43;;;;;;;;;;4972886;28;20327;-77
2022/01/28 03:39:32;;;;;;;14.30;10.20;;;;;;;;;;4973186;28;20204;-77
2022/01/28 03:42:01;;;;;;;12.20;9.90;;;;;;;;;;4973010;28;20201;-77
2022/01/28 03:44:28;;;;;;;8.30;7.30;;;;;;;;;;4973166;28;20669;-77
2022/01/28 03:46:55;;;;;;;8.27;5.90;;;;;;;;;;4972939;28;20691;-77
2022/01/28 03:49:22;;;;;;;5.70;4.83;;;;;;;;;;4973006;28;20743;-77
2022/01/28 03:51:49;;;;;;;7.93;5.83;;;;;;;;;;4972111;28;20197;-77
2022/01/28 03:54:16;;;;;;;7.47;5.67;;;;;;;;;;4973162;28;20219;-76
2022/01/28 03:56:44;;;;;;;5.73;4.70;;;;;;;;;;4972946;28;20205;-77
2022/01/28 03:59:12;;;;;;;6.00;5.07;;;;;;;;;;4973435;28;20204;-77
2022/01/28 04:01:41;;;;;;;20.10;17.43;;;;;;;;;;4973100;28;20306;-77
2022/01/28 04:05:23;;;;;;;21.37;16.87;;;;;;;;;;4973384;28;20291;-77
2022/01/28 04:12:55;;;;;;;18.30;12.23;;;;;;;;;;4992560;28;20199;-77
2022/01/28 04:15:36;;;;;;;11.93;10.43;;;;;;;;;;4992202;28;20197;-76
2022/01/28 04:18:03;;;;;;;10.07;6.40;;;;;;;;;;4992021;28;20748;-77
2022/01/28 04:20:31;;;;;;;6.17;4.73;;;;;;;;;;4995034;28;20204;-77
2022/01/28 04:22:58;;;;;;;4.10;3.70;;;;;;;;;;4994514;28;20193;-77
2022/01/28 04:25:25;;;;;;;4.67;4.27;;;;;;;;;;4994958;28;20207;-76
2022/01/28 04:27:52;;;;;;;4.53;3.60;;;;;;;;;;4994986;28;20200;-76
2022/01/28 04:30:19;;;;;;;7.80;3.60;;;;;;;;;;4994847;28;20266;-77
2022/01/28 04:32:49;;;;;;;22.67;13.50;;;;;;;;;;4994866;28;20203;-76
2022/01/28 04:35:16;;;;;;;18.20;12.97;;;;;;;;;;4994509;28;20204;-77
2022/01/28 04:37:52;;;;;;;27.33;17.73;;;;;;;;;;4994591;28;20631;-76
2022/01/28 04:40:26;;;;;;;22.10;15.10;;;;;;;;;;4994830;28;20188;-76
2022/01/28 04:45:44;;;;;;;28.50;18.90;;;;;;;;;;4994661;28;20764;-77
2022/01/28 04:48:21;;;;;;;23.17;16.40;;;;;;;;;;4994382;28;20200;-77
2022/01/28 04:51:04;;;;;;;18.20;14.17;;;;;;;;;;4994560;28;20239;-76
2022/01/28 04:53:51;;;;;;;14.27;9.63;;;;;;;;;;4994849;28;20195;-76
2022/01/28 04:56:40;;;;;;;9.67;6.47;;;;;;;;;;4994371;28;20715;-76
2022/01/28 04:59:33;;;;;;;29.97;18.93;;;;;;;;;;4994369;28;20259;-77
2022/01/28 05:02:18;;;;;;;29.90;18.40;;;;;;;;;;4993921;28;20192;-77
2022/01/28 05:07:47;;;;;;;33.97;17.37;;;;;;;;;;4992067;28;20451;-76
2022/01/28 05:16:21;;;;;;;5.33;4.83;;;;;;;;;;4993685;28;20188;-76
2022/01/28 05:27:01;;;;;;;10.67;8.43;;;;;;;;;;4993753;28;20287;-76
2022/01/28 05:29:29;;;;;;;6.10;4.77;;;;;;;;;;4995165;28;20291;-77
2022/01/28 05:31:56;;;;;;;6.47;4.83;;;;;;;;;;4994203;28;20292;-77
2022/01/28 05:34:26;;;;;;;22.03;15.13;;;;;;;;;;4994799;28;20210;-77
2022/01/28 05:36:55;;;;;;;51.70;28.20;;;;;;;;;;4994507;28;20246;-77
2022/01/28 05:39:23;;;;;;;62.63;30.57;;;;;;;;;;4994750;28;20669;-77
2022/01/28 05:41:50;;;;;;;19.13;10.53;;;;;;;;;;4994878;28;20478;-78
2022/01/28 05:44:18;;;;;;;14.47;8.97;;;;;;;;;;4994726;28;20211;-78
2022/01/28 05:46:45;;;;;;;8.90;6.60;;;;;;;;;;4994517;28;20668;-78
2022/01/28 05:49:13;;;;;;;8.10;6.43;;;;;;;;;;4994625;28;20245;-78
2022/01/28 05:51:40;;;;;;;6.70;5.17;;;;;;;;;;4994702;28;20455;-77
2022/01/28 05:54:09;;;;;;;5.07;4.40;;;;;;;;;;4994436;28;20471;-78
2022/01/28 05:56:37;;;;;;;5.83;4.50;;;;;;;;;;4994747;28;20218;-78
2022/01/28 05:59:04;;;;;;;5.70;4.47;;;;;;;;;;4994385;28;20211;-77
2022/01/28 06:01:31;;;;;;;6.10;5.20;;;;;;;;;;4994261;28;20228;-77
2022/01/28 06:03:58;;;;;;;6.93;5.07;;;;;;;;;;4994298;28;20200;-78
2022/01/28 06:06:26;;;;;;;10.40;7.90;;;;;;;;;;4994240;28;20204;-77
2022/01/28 06:08:54;;;;;;;14.97;12.73;;;;;;;;;;4994471;28;20204;-77
2022/01/28 06:11:24;;;;;;;11.97;10.40;;;;;;;;;;4994455;28;20279;-77
2022/01/28 06:13:51;;;;;;;18.00;8.63;;;;;;;;;;4994125;28;20196;-78
2022/01/28 06:16:19;;;;;;;20.97;11.47;;;;;;;;;;4994082;28;20200;-77
2022/01/28 06:18:46;;;;;;;12.43;9.10;;;;;;;;;;4994004;28;20207;-78
2022/01/28 06:21:14;;;;;;;26.90;14.17;;;;;;;;;;4993938;28;20224;-77
2022/01/28 06:23:41;;;;;;;8.80;5.77;;;;;;;;;;4994234;28;20200;-77
2022/01/28 06:26:08;;;;;;;30.73;18.63;;;;;;;;;;4993683;28;20207;-77
2022/01/28 06:28:37;;;;;;;38.93;31.03;;;;;;;;;;4993621;28;20204;-78
2022/01/28 06:31:04;;;;;;;68.63;53.23;;;;;;;;;;4994025;28;20642;-77
2022/01/28 06:33:31;;;;;;;33.70;29.07;;;;;;;;;;4993641;28;20204;-78
2022/01/28 06:35:58;;;;;;;12.27;8.80;;;;;;;;;;4993535;28;20274;-78
2022/01/28 06:38:26;;;;;;;12.43;7.23;;;;;;;;;;4993564;28;20204;-78
2022/01/28 06:40:53;;;;;;;11.70;8.40;;;;;;;;;;4993584;28;20232;-78
2022/01/28 06:43:20;;;;;;;31.63;18.17;;;;;;;;;;4992551;28;20207;-77
2022/01/28 06:45:49;;;;;;;38.20;20.73;;;;;;;;;;4993485;28;20211;-77
2022/01/28 06:48:17;;;;;;;15.43;10.50;;;;;;;;;;4993703;28;20200;-78
2022/01/28 06:50:45;;;;;;;11.57;7.50;;;;;;;;;;4993693;28;20204;-78
2022/01/28 06:53:13;;;;;;;8.30;6.97;;;;;;;;;;4993525;28;20287;-78
2022/01/28 06:55:41;;;;;;;11.37;8.90;;;;;;;;;;4993313;28;20200;-79
2022/01/28 06:58:09;;;;;;;21.57;13.77;;;;;;;;;;4993515;28;20299;-78
2022/01/28 07:00:37;;;;;;;51.73;31.37;;;;;;;;;;4993420;28;20695;-78
2022/01/28 07:03:06;;;;;;;45.60;32.37;;;;;;;;;;4993045;28;20211;-78
2022/01/28 07:05:33;;;;;;;62.13;41.87;;;;;;;;;;4993150;28;20200;-78
2022/01/28 07:08:00;;;;;;;43.00;27.37;;;;;;;;;;4993030;28;20204;-78
2022/01/28 07:10:28;;;;;;;28.03;18.57;;;;;;;;;;4993035;28;20694;-78
2022/01/28 07:12:55;;;;;;;25.73;13.33;;;;;;;;;;4993289;28;20663;-78
2022/01/28 07:15:24;;;;;;;18.63;12.17;;;;;;;;;;4992978;28;20196;-78
2022/01/28 07:17:52;;;;;;;51.47;28.27;;;;;;;;;;4993279;28;20200;-78
2022/01/28 07:20:21;;;;;;;36.30;24.37;;;;;;;;;;4992849;28;20200;-78
2022/01/28 07:22:48;;;;;;;20.27;14.47;;;;;;;;;;4991702;28;20239;-78
2022/01/28 07:25:16;;;;;;;26.63;23.53;;;;;;;;;;4991308;28;20200;-78
2022/01/28 07:27:43;;;;;;;13.17;11.73;;;;;;;;;;4992900;28;20222;-78
2022/01/28 07:30:13;;;;;;;13.53;11.97;;;;;;;;;;4992756;28;20643;-78
2022/01/28 07:32:40;;;;;;;18.37;14.03;;;;;;;;;;4992921;28;20561;-78
2022/01/28 07:35:08;;;;;;;19.73;15.53;;;;;;;;;;4992712;28;20203;-78
2022/01/28 07:37:37;;;;;;;17.10;14.67;;;;;;;;;;4992480;28;20236;-78
2022/01/28 07:40:05;;;;;;;14.57;13.03;;;;;;;;;;4992615;28;20254;-78
2022/01/28 07:42:35;;;;;;;18.27;15.93;;;;;;;;;;4992539;28;20315;-79
2022/01/28 07:45:03;;;;;;;15.60;12.70;;;;;;;;;;4992877;28;20200;-79
2022/01/28 07:47:30;;;;;;;33.00;27.80;;;;;;;;;;4992527;28;20203;-80
2022/01/28 07:49:57;;;;;;;16.07;14.37;;;;;;;;;;4992546;28;20283;-80
2022/01/28 07:52:24;;;;;;;9.73;7.63;;;;;;;;;;4992460;28;20296;-81
2022/01/28 07:54:53;;;;;;;12.03;9.00;;;;;;;;;;4992166;28;20200;-81
2022/01/28 07:57:24;;;;;;;6.77;6.07;;;;;;;;;;4992435;28;20234;-81
2022/01/28 07:59:51;;;;;;;8.97;6.93;;;;;;;;;;4992353;28;20196;-81
2022/01/28 08:02:21;;;;;;;6.67;5.97;;;;;;;;;;4992548;28;20224;-82
2022/01/28 08:04:48;;;;;;;6.50;5.77;;;;;;;;;;4992436;28;20215;-82
2022/01/28 08:07:16;;;;;;;8.33;7.47;;;;;;;;;;4992111;28;20205;-82
2022/01/28 08:09:43;;;;;;;7.63;6.10;;;;;;;;;;4992529;28;20200;-82
2022/01/28 08:12:18;;;;;;;9.07;6.07;;;;;;;;;;4992567;28;20192;-82
2022/01/28 08:14:48;;;;;;;7.57;5.40;;;;;;;;;;4992477;28;20649;-82
2022/01/28 08:17:15;;;;;;;10.17;6.40;;;;;;;;;;4992196;28;20207;-82
2022/01/28 08:19:45;;;;;;;7.90;6.33;;;;;;;;;;4992314;28;20208;-82
2022/01/28 08:22:13;;;;;;;6.97;5.93;;;;;;;;;;4992437;28;20739;-83
2022/01/28 08:24:40;;;;;;;7.27;5.87;;;;;;;;;;4991716;28;20296;-83
2022/01/28 08:27:10;;;;;;;11.03;6.30;;;;;;;;;;4992169;28;20735;-83
2022/01/28 08:29:57;;;;;;;9.93;8.63;;;;;;;;;;4992000;28;20296;-83
2022/01/28 08:32:24;;;;;;;9.90;7.93;;;;;;;;;;4992342;28;20208;-83
2022/01/28 08:34:55;;;;;;;7.50;6.27;;;;;;;;;;4992098;28;20234;-83
2022/01/28 08:37:22;;;;;;;8.80;7.47;;;;;;;;;;4991838;28;20227;-83
2022/01/28 08:39:49;;;;;;;10.73;9.03;;;;;;;;;;4992024;28;20192;-83
2022/01/28 08:42:20;;;;;;;9.57;6.63;;;;;;;;;;4992160;28;20224;-83
2022/01/28 08:44:47;;;;;;;22.20;15.83;;;;;;;;;;4992170;28;20261;-83
2022/01/28 08:47:16;;;;;;;53.00;34.63;;;;;;;;;;4991811;28;20197;-83
2022/01/28 08:49:47;;;;;;;59.27;44.13;;;;;;;;;;4991970;28;20204;-83
2022/01/28 08:52:14;;;;;;;23.00;19.80;;;;;;;;;;4991881;28;20279;-83
2022/01/28 08:54:42;;;;;;;12.07;9.83;;;;;;;;;;4991959;28;20200;-83
2022/01/28 08:57:09;;;;;;;14.13;11.57;;;;;;;;;;4991839;28;20206;-83
2022/01/28 08:59:39;;;;;;;8.17;6.40;;;;;;;;;;4991907;28;20296;-83
2022/01/28 09:02:09;;;;;;;13.53;11.67;;;;;;;;;;4992105;28;20611;-83
2022/01/28 09:04:37;;;;;;;9.60;8.60;;;;;;;;;;4991866;28;20196;-83
2022/01/28 09:07:05;;;;;;;16.47;14.53;;;;;;;;;;4993642;28;20286;-83
2022/01/28 09:09:32;;;;;;;25.10;15.13;;;;;;;;;;4995225;28;20295;-83
2022/01/28 09:12:18;;;;;;;10.67;8.03;;;;;;;;;;4995213;28;20677;-83
2022/01/28 09:14:45;;;;;;;66.37;40.20;;;;;;;;;;4995159;28;20196;-83
2022/01/28 09:17:13;;;;;;;14.97;11.77;;;;;;;;;;4995122;28;20208;-83
2022/01/28 09:19:43;;;;;;;16.63;14.20;;;;;;;;;;4995399;28;20201;-83
2022/01/28 09:22:13;;;;;;;16.40;13.00;;;;;;;;;;4994709;28;20204;-83
2022/01/28 09:24:56;;;;;;;19.20;15.27;;;;;;;;;;4995417;28;20204;-83
2022/01/28 09:27:26;;;;;;;19.97;15.87;;;;;;;;;;4994922;28;20594;-84
2022/01/28 09:29:54;;;;;;;21.60;17.43;;;;;;;;;;4995315;28;20200;-84
2022/01/28 09:32:24;;;;;;;23.90;16.93;;;;;;;;;;4994961;28;20665;-84
2022/01/28 09:34:53;;;;;;;30.63;24.00;;;;;;;;;;4994877;28;20234;-84
2022/01/28 09:37:20;;;;;;;20.43;15.57;;;;;;;;;;4994487;28;20236;-84
2022/01/28 09:39:56;;;;;;;31.27;25.50;;;;;;;;;;4995096;28;20288;-84
2022/01/28 09:42:30;;;;;;;28.37;21.60;;;;;;;;;;4994908;28;20602;-84
2022/01/28 09:44:59;;;;;;;21.27;18.10;;;;;;;;;;4994740;28;20251;-84
2022/01/28 09:47:27;;;;;;;24.67;18.73;;;;;;;;;;4994960;28;20577;-83
2022/01/28 09:49:58;;;;;;;17.00;13.40;;;;;;;;;;4994914;28;20266;-83
2022/01/28 09:52:26;;;;;;;18.63;12.23;;;;;;;;;;4994795;28;20200;-83
2022/01/28 09:54:53;;;;;;;20.50;15.50;;;;;;;;;;4994593;28;20287;-84
2022/01/28 09:57:21;;;;;;;17.07;12.80;;;;;;;;;;4994250;28;20231;-84
2022/01/28 09:59:57;;;;;;;13.47;11.13;;;;;;;;;;4994382;28;20196;-84
2022/01/28 10:02:49;;;;;;;15.70;14.10;;;;;;;;;;4994522;28;20224;-84
2022/01/28 10:05:23;;;;;;;19.47;16.37;;;;;;;;;;4994264;28;20285;-84
2022/01/28 10:08:05;;;;;;;19.63;14.80;;;;;;;;;;4994570;28;20623;-84
2022/01/28 10:10:55;;;;;;;17.33;13.23;;;;;;;;;;4994522;28;20210;-84
2022/01/28 10:13:28;;;;;;;18.47;15.17;;;;;;;;;;4994306;28;20615;-84
2022/01/28 10:16:08;;;;;;;18.07;11.87;;;;;;;;;;4994526;28;20223;-84
2022/01/28 10:18:38;;;;;;;23.30;18.33;;;;;;;;;;4993864;28;20621;-85
2022/01/28 10:21:22;;;;;;;24.67;20.63;;;;;;;;;;4993930;28;20201;-85
2022/01/28 10:23:57;;;;;;;16.40;12.23;;;;;;;;;;4994332;28;20310;-84
2022/01/28 10:26:35;;;;;;;15.87;12.33;;;;;;;;;;4994264;28;20282;-84
2022/01/28 10:29:05;;;;;;;14.20;12.07;;;;;;;;;;4993966;28;20192;-84
2022/01/28 10:31:40;;;;;;;16.87;13.20;;;;;;;;;;4994789;28;20258;-84
2022/01/28 10:34:12;;;;;;;20.80;12.83;;;;;;;;;;4993811;28;20235;-84
2022/01/28 10:36:41;;;;;;;18.70;13.03;;;;;;;;;;4993611;28;20228;-85
2022/01/28 10:39:13;;;;;;;14.83;11.90;;;;;;;;;;4993686;28;20295;-85
2022/01/28 10:41:56;;;;;;;42.40;22.20;;;;;;;;;;4993549;28;20284;-84
2022/01/28 10:44:24;;;;;;;55.83;25.47;;;;;;;;;;4993975;28;20559;-85
2022/01/28 10:46:54;;;;;;;18.33;13.07;;;;;;;;;;4993608;28;20206;-84
2022/01/28 10:49:28;;;;;;;44.87;25.97;;;;;;;;;;4993537;28;20228;-84
2022/01/28 10:52:04;;;;;;;35.60;21.00;;;;;;;;;;4993480;28;20188;-84
2022/01/28 10:54:31;;;;;;;15.97;10.20;;;;;;;;;;4993180;28;20196;-84
2022/01/28 10:57:02;;;;;;;21.17;18.73;;;;;;;;;;4993287;28;20200;-84
2022/01/28 10:59:33;;;;;;;13.60;10.10;;;;;;;;;;4992946;28;20196;-84
2022/01/28 11:02:04;;;;;;;15.67;11.20;;;;;;;;;;4993147;28;20208;-84
2022/01/28 11:04:33;;;;;;;11.50;10.00;;;;;;;;;;4993054;28;20200;-85
2022/01/28 11:07:03;;;;;;;13.60;10.53;;;;;;;;;;4992823;28;20200;-85
2022/01/28 11:09:48;;;;;;;11.73;9.30;;;;;;;;;;4993693;28;20546;-85
2022/01/28 11:12:28;;;;;;;11.73;9.23;;;;;;;;;;4992763;28;20720;-85
2022/01/28 11:14:56;;;;;;;13.20;10.60;;;;;;;;;;4993009;28;20206;-85
2022/01/28 11:17:24;;;;;;;13.10;9.73;;;;;;;;;;4992933;28;20200;-85
2022/01/28 11:19:59;;;;;;;13.13;11.43;;;;;;;;;;4992966;28;20211;-85
2022/01/28 11:22:47;;;;;;;9.90;8.43;;;;;;;;;;4992779;28;20285;-85
2022/01/28 11:25:36;;;;;;;18.87;10.27;;;;;;;;;;4992989;28;20188;-85
2022/01/28 11:28:16;;;;;;;16.03;11.63;;;;;;;;;;4992548;28;20234;-85
2022/01/28 11:30:48;;;;;;;12.67;10.20;;;;;;;;;;4992361;28;20207;-84
2022/01/28 11:33:16;;;;;;;17.90;13.83;;;;;;;;;;4992818;28;20202;-85
2022/01/28 11:36:07;;;;;;;15.97;12.63;;;;;;;;;;4992847;28;20577;-85
2022/01/28 11:38:55;;;;;;;13.40;10.43;;;;;;;;;;4987317;28;20200;-85
2022/01/28 11:41:25;;;;;;;13.53;11.83;;;;;;;;;;4992532;28;20661;-85
2022/01/28 11:43:54;;;;;;;11.10;8.47;;;;;;;;;;4992549;28;20224;-85
2022/01/28 11:46:36;;;;;;;9.07;6.60;;;;;;;;;;4992339;28;20208;-85
2022/01/28 11:49:19;;;;;;;4.60;4.10;;;;;;;;;;4992756;28;20200;-85
2022/01/28 11:51:58;;;;;;;3.93;3.53;;;;;;;;;;4992624;28;20200;-85
2022/01/28 11:54:37;;;;;;;6.53;4.47;;;;;;;;;;4992272;28;20246;-85
2022/01/28 11:57:18;;;;;;;5.47;3.57;;;;;;;;;;4992441;28;20204;-85
2022/01/28 11:59:49;;;;;;;4.27;3.87;;;;;;;;;;4992819;28;20252;-85
2022/01/28 12:02:22;;;;;;;3.47;3.17;;;;;;;;;;4992204;28;20278;-85
2022/01/28 12:04:49;;;;;;;4.13;3.23;;;;;;;;;;4992666;28;20185;-86
2022/01/28 12:07:23;;;;;;;6.50;3.20;;;;;;;;;;4992189;28;20204;-85
2022/01/28 12:09:53;;;;;;;4.40;3.93;;;;;;;;;;4992749;28;20188;-85
2022/01/28 12:12:25;;;;;;;3.87;3.50;;;;;;;;;;4992402;28;20275;-85
2022/01/28 12:15:15;;;;;;;3.57;3.27;;;;;;;;;;4992496;28;20192;-85
2022/01/28 12:17:47;;;;;;;4.00;3.70;;;;;;;;;;4992484;28;20276;-85
2022/01/28 12:20:46;;;;;;;3.13;2.70;;;;;;;;;;4992338;28;20192;-85
2022/01/28 12:23:38;;;;;;;16.53;12.03;;;;;;;;;;4992242;28;20251;-85
2022/01/28 12:26:06;;;;;;;4.87;3.53;;;;;;;;;;4992358;28;20213;-85
2022/01/28 12:28:58;;;;;;;4.37;3.97;;;;;;;;;;4992003;28;20296;-85
2022/01/28 12:31:31;;;;;;;7.07;4.00;;;;;;;;;;4992123;28;20196;-85
2022/01/28 12:34:01;;;;;;;2.93;2.73;;;;;;;;;;4992429;28;20628;-85
2022/01/28 12:36:32;;;;;;;5.00;3.73;;;;;;;;;;4991492;28;20295;-84
2022/01/28 12:39:20;;;;;;;3.63;3.07;;;;;;;;;;4991650;28;20299;-84
2022/01/28 12:41:56;;;;;;;2.87;2.00;;;;;;;;;;4993606;28;20204;-84
2022/01/28 12:44:25;;;;;;;14.53;9.17;;;;;;;;;;4995476;28;20216;-85
2022/01/28 12:46:58;;;;;;;12.77;8.50;;;;;;;;;;4995995;28;20284;-85
2022/01/28 12:49:29;;;;;;;6.63;5.07;;;;;;;;;;4995390;28;20192;-85
2022/01/28 12:51:58;;;;;;;3.27;2.33;;;;;;;;;;4996006;28;20196;-85
2022/01/28 12:54:40;;;;;;;3.67;3.33;;;;;;;;;;4995859;28;20192;-84
2022/01/28 12:57:21;;;;;;;1.83;1.73;;;;;;;;;;4995684;28;20648;-84
2022/01/28 12:59:51;;;;;;;2.40;2.17;;;;;;;;;;4995797;28;20200;-85
2022/01/28 13:02:19;;;;;;;2.17;2.03;;;;;;;;;;4995414;28;20211;-85
2022/01/28 13:04:56;;;;;;;2.27;1.90;;;;;;;;;;4995475;28;20247;-85
2022/01/28 13:10:29;;;;;;;3.10;2.57;;;;;;;;;;4996067;28;20196;-85
2022/01/28 13:13:05;;;;;;;3.23;2.93;;;;;;;;;;4995549;28;20202;-85
2022/01/28 13:15:33;;;;;;;2.43;2.07;;;;;;;;;;4995289;28;20231;-85
2022/01/28 13:18:02;;;;;;;2.37;2.00;;;;;;;;;;4995169;28;20603;-85
2022/01/28 13:20:33;;;;;;;2.70;2.50;;;;;;;;;;4995225;28;20192;-85
2022/01/28 13:23:04;;;;;;;7.53;6.73;;;;;;;;;;4995172;28;20626;-85
2022/01/28 13:25:34;;;;;;;7.17;6.33;;;;;;;;;;4995115;28;20197;-85
2022/01/28 13:28:12;;;;;;;2.40;2.20;;;;;;;;;;4995106;28;20208;-85
2022/01/28 13:30:40;;;;;;;3.37;2.63;;;;;;;;;;4995350;28;20254;-85
2022/01/28 13:33:09;;;;;;;1.97;1.50;;;;;;;;;;4994594;28;20292;-85
2022/01/28 13:35:38;;;;;;;2.57;2.30;;;;;;;;;;4994704;28;20196;-85
2022/01/28 13:38:14;;;;;;;1.80;1.70;;;;;;;;;;4994867;28;20231;-85
2022/01/28 13:40:41;;;;;;;1.50;1.40;;;;;;;;;;4994865;28;20192;-85
2022/01/28 13:43:12;;;;;;;3.63;1.70;;;;;;;;;;4994641;28;20228;-85
2022/01/28 13:45:42;;;;;;;1.63;1.47;;;;;;;;;;4994659;28;20280;-85
2022/01/28 13:48:18;;;;;;;1.63;1.20;;;;;;;;;;4994910;28;20192;-85
2022/01/28 13:50:52;;;;;;;1.50;1.23;;;;;;;;;;4994708;28;20609;-85
2022/01/28 13:54:10;;;;;;;1.67;1.57;;;;;;;;;;4994396;28;20242;-85
2022/01/28 13:56:22;;;;;;;4.60;1.73;;;;;;;;;;4993964;28;20200;-85
2022/01/28 13:58:53;;;;;;;2.90;2.30;;;;;;;;;;4994181;28;20204;-85
2022/01/28 14:01:25;;;;;;;5.37;2.70;;;;;;;;;;4994747;28;20624;-85
2022/01/28 14:04:02;;;;;;;1.83;1.73;;;;;;;;;;4994156;28;20270;-85
2022/01/28 14:06:31;;;;;;;1.40;1.30;;;;;;;;;;4994229;28;20204;-85
2022/01/28 14:09:06;;;;;;;1.93;1.60;;;;;;;;;;4994167;28;20290;-85
2022/01/28 14:11:41;;;;;;;9.00;4.40;;;;;;;;;;4993928;28;20200;-85
2022/01/28 14:14:41;;;;;;;12.40;7.73;;;;;;;;;;4994217;28;20196;-85
2022/01/28 14:17:10;;;;;;;10.03;4.37;;;;;;;;;;4994227;28;20211;-85
2022/01/28 14:19:41;;;;;;;11.57;6.90;;;;;;;;;;4993962;28;20235;-85
2022/01/28 14:22:08;;;;;;;12.77;7.97;;;;;;;;;;4994232;28;20189;-85
2022/01/28 14:24:37;;;;;;;3.27;2.93;;;;;;;;;;4993990;28;20593;-86
2022/01/28 14:27:13;;;;;;;2.90;1.53;;;;;;;;;;4993664;28;20203;-86
2022/01/28 14:29:53;;;;;;;1.43;1.33;;;;;;;;;;4993903;28;20188;-85
2022/01/28 14:32:23;;;;;;;1.73;1.53;;;;;;;;;;4994034;28;20262;-85
2022/01/28 14:35:06;;;;;;;1.57;1.20;;;;;;;;;;4994044;28;20207;-86
2022/01/28 14:37:37;;;;;;;1.70;1.60;;;;;;;;;;4993677;28;20232;-85
2022/01/28 14:40:06;;;;;;;6.83;1.90;;;;;;;;;;4993904;28;20190;-85
2022/01/28 14:42:33;;;;;;;2.87;2.07;;;;;;;;;;4993700;28;20511;-85
2022/01/28 14:45:02;;;;;;;5.70;5.10;;;;;;;;;;4993384;28;20230;-86
2022/01/28 14:47:29;;;;;;;9.27;4.23;;;;;;;;;;4993296;28;20299;-85
2022/01/28 14:49:59;;;;;;;3.40;2.87;;;;;;;;;;4993827;28;20207;-85
2022/01/28 14:52:29;;;;;;;4.07;3.67;;;;;;;;;;4993347;28;20192;-85
2022/01/28 14:55:03;;;;;;;3.73;3.33;;;;;;;;;;4993360;28;20199;-85
2022/01/28 14:57:31;;;;;;;4.90;2.70;;;;;;;;;;4993241;28;20684;-85
2022/01/28 14:59:58;;;;;;;2.83;2.53;;;;;;;;;;4993519;28;20215;-84
2022/01/28 15:02:31;;;;;;;3.03;2.47;;;;;;;;;;4993244;28;20207;-85
2022/01/28 15:05:11;;;;;;;2.03;1.93;;;;;;;;;;4992352;28;20335;-84
2022/01/28 15:07:38;;;;;;;7.77;4.77;;;;;;;;;;4992768;28;20204;-85
2022/01/28 15:10:07;;;;;;;6.53;5.23;;;;;;;;;;4993225;28;20196;-85
2022/01/28 15:12:35;;;;;;;4.73;4.17;;;;;;;;;;4993068;28;20199;-85
2022/01/28 15:15:02;;;;;;;2.63;2.00;;;;;;;;;;4993377;28;20200;-85
2022/01/28 15:17:31;;;;;;;3.53;2.33;;;;;;;;;;4992683;28;20295;-84
2022/01/28 15:20:00;;;;;;;5.03;2.60;;;;;;;;;;4992927;28;20287;-84
2022/01/28 15:22:27;;;;;;;2.50;2.30;;;;;;;;;;4992621;28;20236;-84
2022/01/28 15:24:54;;;;;;;5.20;2.47;;;;;;;;;;4992659;28;20246;-84
2022/01/28 15:27:29;;;;;;;3.23;2.93;;;;;;;;;;4992842;28;20288;-85
2022/01/28 15:30:03;;;;;;;2.40;2.20;;;;;;;;;;4992787;28;20200;-84
2022/01/28 15:38:01;;;;;;;2.10;1.90;;;;;;;;;;4992357;28;20347;-84
2022/01/28 15:40:29;;;;;;;2.53;1.90;;;;;;;;;;4992581;28;20661;-84
2022/01/28 15:43:00;;;;;;;2.30;2.10;;;;;;;;;;4992564;28;20203;-84
2022/01/28 15:45:31;;;;;;;3.67;2.97;;;;;;;;;;4987833;28;20223;-83
2022/01/28 15:47:59;;;;;;;2.77;1.90;;;;;;;;;;4992417;28;20192;-84
2022/01/28 15:50:28;;;;;;;2.10;1.87;;;;;;;;;;5007850;28;20262;-84
2022/01/28 15:52:55;;;;;;;2.20;1.77;;;;;;;;;;5011783;28;20195;-83
2022/01/28 15:55:25;;;;;;;2.07;1.87;;;;;;;;;;5011725;28;20201;-84
2022/01/28 15:57:53;;;;;;;2.77;2.50;;;;;;;;;;5011583;28;20210;-85
2022/01/28 16:00:20;;;;;;;2.27;2.07;;;;;;;;;;5011769;28;20238;-85
2022/01/28 16:02:47;;;;;;;2.60;2.40;;;;;;;;;;5011636;28;20199;-83